Time;durP1;ratioP1;P1;durP2;ratioP2;P2;SDS_P1;SDS_P2;PMS_P1;PMS_P2;Temp;Humidity;BMP_temperature;BMP_pressure;BME280_temperature;BME280_humidity;BME280_pressure;Samples;Min_cycle;Max_cycle;Signal;HPM_P1;HPM_P2
2023/01/02 00:00:37;;;;;;;;;;;9.50;99.90;;;;;;5048488;28;19935;-72
2023/01/02 00:03:03;;;;;;;;;;;9.50;99.90;;;;;;5082655;28;20342;-64
2023/01/02 00:05:28;;;;;;;;;;;9.50;99.90;;;;;;5049383;28;19956;-70
2023/01/02 00:07:54;;;;;;;;;;;9.50;99.90;;;;;;5042508;28;19963;-69
2023/01/02 00:10:20;;;;;;;;;;;9.60;99.90;;;;;;5041229;28;20371;-69
2023/01/02 00:12:45;;;;;;;;;;;9.50;99.90;;;;;;5037889;28;20250;-69
2023/01/02 00:15:11;;;;;;;;;;;9.50;99.90;;;;;;5038119;28;20465;-69
2023/01/02 00:17:36;;;;;;;;;;;9.50;99.90;;;;;;5037211;28;20290;-71
2023/01/02 00:20:02;;;;;;;;;;;9.50;99.90;;;;;;5046717;28;20019;-69
2023/01/02 00:22:28;;;;;;;;;;;9.50;99.90;;;;;;5036484;28;20013;-70
2023/01/02 00:24:53;;;;;;;;;;;9.50;99.90;;;;;;5043503;28;20291;-69
2023/01/02 00:27:19;;;;;;;;;;;9.50;99.90;;;;;;5049919;28;19928;-70
2023/01/02 00:29:44;;;;;;;;;;;9.50;99.90;;;;;;5051423;28;19974;-69
2023/01/02 00:32:10;;;;;;;;;;;9.60;99.90;;;;;;5050429;28;19928;-70
2023/01/02 00:34:35;;;;;;;;;;;9.50;99.90;;;;;;5032652;28;19932;-69
2023/01/02 00:37:01;;;;;;;;;;;9.50;99.90;;;;;;5083187;28;19920;-68
2023/01/02 00:39:27;;;;;;;;;;;9.50;99.90;;;;;;5044479;28;19976;-68
2023/01/02 00:41:52;;;;;;;;;;;9.60;99.90;;;;;;5040682;28;20413;-69
2023/01/02 00:44:18;;;;;;;;;;;9.60;99.90;;;;;;5046860;28;19928;-68
2023/01/02 00:46:43;;;;;;;;;;;9.60;99.90;;;;;;5034960;28;19928;-71
2023/01/02 00:49:09;;;;;;;;;;;9.70;99.90;;;;;;5030948;28;19921;-69
2023/01/02 00:51:34;;;;;;;;;;;9.70;99.90;;;;;;5040035;28;20276;-69
2023/01/02 00:54:00;;;;;;;;;;;9.80;99.90;;;;;;5031140;28;19959;-69
2023/01/02 00:56:25;;;;;;;;;;;9.70;99.90;;;;;;5032905;28;20298;-69
2023/01/02 00:58:51;;;;;;;;;;;9.80;99.90;;;;;;5050644;28;19921;-70
2023/01/02 01:01:16;;;;;;;;;;;9.90;99.90;;;;;;5049679;28;19956;-70
2023/01/02 01:03:42;;;;;;;;;;;9.80;99.90;;;;;;5047505;28;19928;-70
2023/01/02 01:06:09;;;;;;;;;;;9.90;99.90;;;;;;5043516;28;19975;-70
2023/01/02 01:08:35;;;;;;;;;;;10.00;99.90;;;;;;5049617;28;19950;-70
2023/01/02 01:11:05;;;;;;;;;;;10.00;99.90;;;;;;5050492;28;19924;-69
2023/01/02 01:13:31;;;;;;;;;;;10.00;99.90;;;;;;5050916;28;19993;-70
2023/01/02 01:16:02;;;;;;;;;;;10.10;99.90;;;;;;5049158;28;20366;-70
2023/01/02 01:18:27;;;;;;;;;;;10.10;99.90;;;;;;5049442;28;19936;-69
2023/01/02 01:20:53;;;;;;;;;;;10.00;99.90;;;;;;5050294;28;19921;-70
2023/01/02 01:23:19;;;;;;;;;;;10.10;99.90;;;;;;5049692;28;19983;-70
2023/01/02 01:25:44;;;;;;;;;;;10.10;99.90;;;;;;5049629;28;19944;-70
2023/01/02 01:28:10;;;;;;;;;;;10.20;99.90;;;;;;5047595;28;19979;-70
2023/01/02 01:30:35;;;;;;;;;;;10.20;99.90;;;;;;5049795;28;19931;-71
2023/01/02 01:33:01;;;;;;;;;;;10.20;99.90;;;;;;5058484;28;20072;-71
2023/01/02 01:35:26;;;;;;;;;;;10.20;99.90;;;;;;5051513;28;19925;-66
2023/01/02 01:37:52;;;;;;;;;;;10.20;99.90;;;;;;5050168;28;19921;-71
2023/01/02 01:40:17;;;;;;;;;;;10.30;99.90;;;;;;5049399;28;19920;-70
2023/01/02 01:42:43;;;;;;;;;;;10.20;99.90;;;;;;5052459;28;19920;-71
2023/01/02 01:45:12;;;;;;;;;;;10.30;99.90;;;;;;5048890;28;20476;-70
2023/01/02 01:47:40;;;;;;;;;;;10.20;99.90;;;;;;5052719;28;20293;-70
2023/01/02 01:50:06;;;;;;;;;;;10.30;99.90;;;;;;5052336;28;19925;-70
2023/01/02 01:52:33;;;;;;;;;;;10.20;99.90;;;;;;5054301;28;20243;-70
2023/01/02 01:55:06;;;;;;;;;;;10.30;99.90;;;;;;5080095;28;19940;-70
2023/01/02 01:57:35;;;;;;;;;;;10.20;99.90;;;;;;5047725;28;19920;-71
2023/01/02 02:00:02;;;;;;;;;;;10.30;99.90;;;;;;5044429;28;19929;-70
2023/01/02 02:02:29;;;;;;;;;;;10.30;99.90;;;;;;5050199;28;19974;-70
2023/01/02 02:04:56;;;;;;;;;;;10.30;99.90;;;;;;5065450;28;20301;-70
2023/01/02 02:07:22;;;;;;;;;;;10.30;99.90;;;;;;5054059;28;19920;-70
2023/01/02 02:09:50;;;;;;;;;;;10.30;99.90;;;;;;5052858;28;19929;-69
2023/01/02 02:12:16;;;;;;;;;;;10.40;99.90;;;;;;5053284;28;19971;-70
2023/01/02 02:14:42;;;;;;;;;;;10.40;99.90;;;;;;5055039;28;20351;-69
2023/01/02 02:17:15;;;;;;;;;;;10.30;99.90;;;;;;5051914;28;19971;-69
2023/01/02 02:19:47;;;;;;;;;;;10.40;99.90;;;;;;5052900;28;20019;-69
2023/01/02 02:22:31;;;;;;;;;;;10.30;99.90;;;;;;5051327;28;19947;-69
2023/01/02 02:24:56;;;;;;;;;;;10.40;99.90;;;;;;5052989;28;19920;-70
2023/01/02 02:27:25;;;;;;;;;;;10.30;99.90;;;;;;5051532;28;20019;-69
2023/01/02 02:30:02;;;;;;;;;;;10.40;99.90;;;;;;5051439;28;19920;-70
2023/01/02 02:32:40;;;;;;;;;;;10.40;99.90;;;;;;5046715;28;19933;-70
2023/01/02 02:35:17;;;;;;;;;;;10.30;99.90;;;;;;5041131;28;19984;-70
2023/01/02 02:37:49;;;;;;;;;;;10.40;99.90;;;;;;5051138;28;19928;-69
2023/01/02 02:40:17;;;;;;;;;;;10.50;99.90;;;;;;5052868;28;19928;-69
2023/01/02 02:42:52;;;;;;;;;;;10.40;99.90;;;;;;5051645;28;19987;-70
2023/01/02 02:45:21;;;;;;;;;;;10.40;99.90;;;;;;5043266;28;19948;-70
2023/01/02 02:47:48;;;;;;;;;;;10.40;99.90;;;;;;5039155;28;19921;-70
2023/01/02 02:50:17;;;;;;;;;;;10.40;99.90;;;;;;5052342;28;19931;-70
2023/01/02 02:52:45;;;;;;;;;;;10.60;99.90;;;;;;5051858;28;20382;-71
2023/01/02 02:55:10;;;;;;;;;;;10.50;99.90;;;;;;5051342;28;19940;-71
2023/01/02 02:57:37;;;;;;;;;;;10.50;99.90;;;;;;5056059;28;19924;-71
2023/01/02 03:00:04;;;;;;;;;;;10.50;99.90;;;;;;5051256;28;19920;-71
2023/01/02 03:02:30;;;;;;;;;;;10.50;99.90;;;;;;5051983;28;19921;-71
2023/01/02 03:04:58;;;;;;;;;;;10.50;99.90;;;;;;5051961;28;19928;-72
2023/01/02 03:07:43;;;;;;;;;;;10.60;99.90;;;;;;5059615;28;19921;-71
2023/01/02 03:10:15;;;;;;;;;;;10.60;99.90;;;;;;5051934;28;20358;-71
2023/01/02 03:12:50;;;;;;;;;;;10.60;99.90;;;;;;5052276;28;20440;-71
2023/01/02 03:15:30;;;;;;;;;;;10.60;99.90;;;;;;5050686;28;19931;-71
2023/01/02 03:18:06;;;;;;;;;;;10.60;99.90;;;;;;5054030;28;19921;-70
2023/01/02 03:20:43;;;;;;;;;;;10.60;99.90;;;;;;5052150;28;19974;-71
2023/01/02 03:23:12;;;;;;;;;;;10.60;99.90;;;;;;5046536;28;20342;-71
2023/01/02 03:25:38;;;;;;;;;;;10.60;99.90;;;;;;5066088;28;19924;-70
2023/01/02 03:28:05;;;;;;;;;;;10.60;99.90;;;;;;5050812;28;19935;-72
2023/01/02 03:30:32;;;;;;;;;;;10.70;99.90;;;;;;5043390;28;19920;-71
2023/01/02 03:33:09;;;;;;;;;;;10.60;99.90;;;;;;5051244;28;20034;-71
2023/01/02 03:35:39;;;;;;;;;;;10.70;99.90;;;;;;5038965;28;19925;-71
2023/01/02 03:38:07;;;;;;;;;;;10.70;99.90;;;;;;5039252;28;19920;-72
2023/01/02 03:40:36;;;;;;;;;;;10.70;99.90;;;;;;5060588;28;19966;-71
2023/01/02 03:43:10;;;;;;;;;;;10.70;99.90;;;;;;5051803;28;19924;-72
2023/01/02 03:45:38;;;;;;;;;;;10.60;99.90;;;;;;5053705;28;19921;-71
2023/01/02 03:48:09;;;;;;;;;;;10.70;99.90;;;;;;5051833;28;20413;-71
2023/01/02 03:50:39;;;;;;;;;;;10.80;99.90;;;;;;5051115;28;20401;-71
2023/01/02 03:53:04;;;;;;;;;;;10.80;99.90;;;;;;5053739;28;19970;-72
2023/01/02 03:55:32;;;;;;;;;;;10.70;99.90;;;;;;5083024;28;19921;-72
2023/01/02 03:58:04;;;;;;;;;;;10.70;99.90;;;;;;5050900;28;20385;-71
2023/01/02 04:00:34;;;;;;;;;;;10.80;99.90;;;;;;5051419;28;19928;-72
2023/01/02 04:03:13;;;;;;;;;;;10.80;99.90;;;;;;5062906;28;20061;-72
2023/01/02 04:05:38;;;;;;;;;;;10.70;99.90;;;;;;5052018;28;19921;-71
2023/01/02 04:08:24;;;;;;;;;;;10.80;99.90;;;;;;5051772;28;19920;-71
2023/01/02 04:10:51;;;;;;;;;;;10.80;99.90;;;;;;5049212;28;19921;-72
2023/01/02 04:13:22;;;;;;;;;;;10.90;99.90;;;;;;5051215;28;19921;-72
2023/01/02 04:15:49;;;;;;;;;;;10.80;99.90;;;;;;5051519;28;19920;-71
2023/01/02 04:18:19;;;;;;;;;;;10.80;99.90;;;;;;5051048;28;19921;-72
2023/01/02 04:20:46;;;;;;;;;;;10.80;99.90;;;;;;5051600;28;19927;-72
2023/01/02 04:23:14;;;;;;;;;;;10.80;99.90;;;;;;5052252;28;19974;-73
2023/01/02 04:25:55;;;;;;;;;;;10.80;99.90;;;;;;5070131;28;20373;-72
2023/01/02 04:28:23;;;;;;;;;;;10.90;99.90;;;;;;5050520;28;20389;-72
2023/01/02 04:30:53;;;;;;;;;;;10.80;99.90;;;;;;5050568;28;20273;-71
2023/01/02 04:33:20;;;;;;;;;;;10.90;99.90;;;;;;5051066;28;19971;-71
2023/01/02 04:35:46;;;;;;;;;;;10.80;99.90;;;;;;5050783;28;19925;-71
2023/01/02 04:38:12;;;;;;;;;;;10.90;99.90;;;;;;5051367;28;19966;-71
2023/01/02 04:40:37;;;;;;;;;;;10.80;99.90;;;;;;5049466;28;20355;-71
2023/01/02 04:43:12;;;;;;;;;;;10.80;99.90;;;;;;5049920;28;19921;-72
2023/01/02 04:45:37;;;;;;;;;;;10.90;99.90;;;;;;5074231;28;20382;-71
2023/01/02 04:48:03;;;;;;;;;;;10.80;99.90;;;;;;5050791;28;20025;-70
2023/01/02 04:50:29;;;;;;;;;;;10.90;99.90;;;;;;5083436;28;19932;-70
2023/01/02 04:52:54;;;;;;;;;;;10.90;99.90;;;;;;5049980;28;20007;-70
2023/01/02 04:55:20;;;;;;;;;;;10.90;99.90;;;;;;5049806;28;19927;-70
2023/01/02 04:57:45;;;;;;;;;;;10.80;99.90;;;;;;5051055;28;19920;-71
2023/01/02 05:00:11;;;;;;;;;;;10.90;99.90;;;;;;5051120;28;19971;-69
2023/01/02 05:02:37;;;;;;;;;;;10.90;99.90;;;;;;5080485;28;20495;-70
2023/01/02 05:05:03;;;;;;;;;;;10.80;99.90;;;;;;5049686;28;20277;-70
2023/01/02 05:07:29;;;;;;;;;;;10.90;99.90;;;;;;5049346;28;19927;-70
2023/01/02 05:09:54;;;;;;;;;;;10.80;99.90;;;;;;5050637;28;19924;-71
2023/01/02 05:12:20;;;;;;;;;;;10.80;99.90;;;;;;5057736;28;19928;-73
2023/01/02 05:14:46;;;;;;;;;;;10.90;99.90;;;;;;5056335;28;19924;-71
2023/01/02 05:17:11;;;;;;;;;;;10.90;99.90;;;;;;5050778;28;19964;-70
2023/01/02 05:19:37;;;;;;;;;;;10.90;99.90;;;;;;5050675;28;20458;-70
2023/01/02 05:24:46;;;;;;;;;;;10.90;99.90;;;;;;5061846;28;19974;-70
2023/01/02 05:27:12;;;;;;;;;;;10.90;99.90;;;;;;5054333;28;19920;-70
2023/01/02 05:29:38;;;;;;;;;;;10.90;99.90;;;;;;5053333;28;19928;-70
2023/01/02 05:32:03;;;;;;;;;;;10.80;99.90;;;;;;5053222;28;19972;-70
2023/01/02 05:34:29;;;;;;;;;;;10.80;99.90;;;;;;5062774;28;19931;-70
2023/01/02 05:36:54;;;;;;;;;;;10.90;99.90;;;;;;5053633;28;19928;-69
2023/01/02 05:39:20;;;;;;;;;;;10.80;99.90;;;;;;5053058;28;19925;-70
2023/01/02 05:41:46;;;;;;;;;;;10.80;99.90;;;;;;5052818;28;19921;-69
2023/01/02 05:44:11;;;;;;;;;;;10.90;99.90;;;;;;5061938;28;20304;-69
2023/01/02 05:46:38;;;;;;;;;;;10.80;99.90;;;;;;5040223;28;19936;-70
2023/01/02 05:49:07;;;;;;;;;;;10.90;99.90;;;;;;5047563;28;20015;-69
2023/01/02 05:51:33;;;;;;;;;;;10.80;99.90;;;;;;5035280;28;19944;-67
2023/01/02 05:53:58;;;;;;;;;;;10.80;99.90;;;;;;5042565;28;20369;-70
2023/01/02 05:56:25;;;;;;;;;;;10.90;99.90;;;;;;5050309;28;20348;-70
2023/01/02 05:58:50;;;;;;;;;;;10.80;99.90;;;;;;5052352;28;19920;-70
2023/01/02 06:01:26;;;;;;;;;;;10.90;99.90;;;;;;5038552;28;19921;-70
2023/01/02 06:03:53;;;;;;;;;;;10.80;99.90;;;;;;5038265;28;19978;-70
2023/01/02 06:06:19;;;;;;;;;;;10.80;99.90;;;;;;5049008;28;19927;-70
2023/01/02 06:08:45;;;;;;;;;;;10.90;99.90;;;;;;5041078;28;20671;-70
2023/01/02 06:11:10;;;;;;;;;;;10.90;99.90;;;;;;5038785;28;19925;-69
2023/01/02 06:13:37;;;;;;;;;;;10.80;99.90;;;;;;5033659;28;20290;-70
2023/01/02 06:16:03;;;;;;;;;;;10.80;99.90;;;;;;5045149;28;19921;-70
2023/01/02 06:18:29;;;;;;;;;;;10.90;99.90;;;;;;5041132;28;19928;-73
2023/01/02 06:20:58;;;;;;;;;;;10.90;99.90;;;;;;5034447;28;19925;-70
2023/01/02 06:23:24;;;;;;;;;;;10.80;99.90;;;;;;5080525;28;19925;-69
2023/01/02 06:25:50;;;;;;;;;;;10.90;99.90;;;;;;5037447;28;20105;-70
2023/01/02 06:28:15;;;;;;;;;;;10.90;99.90;;;;;;5041051;28;19928;-72
2023/01/02 06:30:41;;;;;;;;;;;10.80;99.90;;;;;;5034316;28;19972;-69
2023/01/02 06:33:06;;;;;;;;;;;10.90;99.90;;;;;;5032288;28;19932;-69
2023/01/02 06:35:32;;;;;;;;;;;10.80;99.90;;;;;;5042330;28;19925;-72
2023/01/02 06:37:57;;;;;;;;;;;10.80;99.90;;;;;;5051401;28;19925;-69
2023/01/02 06:40:23;;;;;;;;;;;10.90;99.90;;;;;;5040460;28;19921;-69
2023/01/02 06:42:49;;;;;;;;;;;10.90;99.90;;;;;;5035563;28;19975;-69
2023/01/02 06:45:14;;;;;;;;;;;10.90;99.90;;;;;;5035330;28;19932;-69
2023/01/02 06:47:40;;;;;;;;;;;10.80;99.90;;;;;;5040186;28;20336;-69
2023/01/02 06:50:07;;;;;;;;;;;10.80;99.90;;;;;;5042177;28;19925;-69
2023/01/02 06:52:32;;;;;;;;;;;10.80;99.90;;;;;;5052029;28;19921;-72
2023/01/02 06:54:58;;;;;;;;;;;10.70;99.90;;;;;;5017829;28;19975;-70
2023/01/02 06:57:23;;;;;;;;;;;10.70;99.90;;;;;;5045903;28;19951;-70
2023/01/02 06:59:49;;;;;;;;;;;10.70;99.90;;;;;;5037197;28;20370;-71
2023/01/02 07:02:15;;;;;;;;;;;10.70;99.90;;;;;;5043670;28;20000;-70
2023/01/02 07:04:40;;;;;;;;;;;10.60;99.90;;;;;;5036097;28;19928;-70
2023/01/02 07:07:07;;;;;;;;;;;10.60;99.90;;;;;;5038351;28;19920;-71
2023/01/02 07:09:33;;;;;;;;;;;10.50;99.90;;;;;;5040619;28;20349;-70
2023/01/02 07:11:59;;;;;;;;;;;10.40;99.90;;;;;;5045668;28;19921;-70
2023/01/02 07:14:24;;;;;;;;;;;10.30;99.90;;;;;;5035082;28;19921;-71
2023/01/02 07:16:50;;;;;;;;;;;10.10;99.90;;;;;;5034775;28;19929;-70
2023/01/02 07:19:16;;;;;;;;;;;10.00;99.90;;;;;;5047497;28;20388;-71
2023/01/02 07:21:41;;;;;;;;;;;9.80;99.90;;;;;;5050450;28;19932;-67
2023/01/02 07:24:10;;;;;;;;;;;9.70;99.90;;;;;;5050461;28;19924;-70
2023/01/02 07:26:36;;;;;;;;;;;9.50;99.90;;;;;;5051647;28;20438;-70
2023/01/02 07:29:01;;;;;;;;;;;9.40;99.90;;;;;;5051702;28;20043;-69
2023/01/02 07:31:28;;;;;;;;;;;9.40;99.90;;;;;;5051719;28;19928;-69
2023/01/02 07:33:54;;;;;;;;;;;9.30;99.90;;;;;;5048109;28;19932;-68
2023/01/02 07:36:21;;;;;;;;;;;9.10;99.90;;;;;;5051533;28;19921;-69
2023/01/02 07:38:50;;;;;;;;;;;9.00;99.90;;;;;;5072497;28;19924;-69
2023/01/02 07:41:17;;;;;;;;;;;8.90;99.90;;;;;;5049497;28;19960;-70
2023/01/02 07:43:43;;;;;;;;;;;8.90;99.90;;;;;;5050781;28;19925;-70
2023/01/02 07:46:09;;;;;;;;;;;8.80;99.90;;;;;;5050653;28;19956;-70
2023/01/02 07:48:35;;;;;;;;;;;8.80;99.90;;;;;;5050320;28;20039;-69
2023/01/02 07:51:04;;;;;;;;;;;8.70;99.90;;;;;;5062592;28;19998;-70
2023/01/02 07:53:30;;;;;;;;;;;8.60;99.90;;;;;;5050017;28;19928;-70
2023/01/02 07:55:56;;;;;;;;;;;8.60;99.90;;;;;;5050979;28;20294;-70
2023/01/02 07:58:22;;;;;;;;;;;8.70;99.90;;;;;;5016881;28;20019;-70
2023/01/02 08:00:48;;;;;;;;;;;8.70;99.90;;;;;;5045573;28;20465;-71
2023/01/02 08:03:13;;;;;;;;;;;8.70;99.90;;;;;;5042774;28;19921;-70
2023/01/02 08:05:39;;;;;;;;;;;8.70;99.90;;;;;;5044212;28;19921;-70
2023/01/02 08:08:05;;;;;;;;;;;8.60;99.90;;;;;;5037505;28;20703;-70
2023/01/02 08:10:30;;;;;;;;;;;8.70;99.90;;;;;;5063909;28;19978;-70
2023/01/02 08:12:56;;;;;;;;;;;8.70;99.90;;;;;;5033758;28;19931;-70
2023/01/02 08:15:23;;;;;;;;;;;8.60;99.90;;;;;;5040031;28;19925;-70
2023/01/02 08:17:48;;;;;;;;;;;8.60;99.90;;;;;;5070486;28;20278;-69
2023/01/02 08:20:14;;;;;;;;;;;8.50;99.90;;;;;;5045491;28;20011;-70
2023/01/02 08:22:39;;;;;;;;;;;8.50;99.90;;;;;;5044618;28;20322;-69
2023/01/02 08:25:05;;;;;;;;;;;8.60;99.90;;;;;;5044285;28;19928;-69
2023/01/02 08:27:31;;;;;;;;;;;8.50;99.90;;;;;;5046104;28;20355;-70
2023/01/02 08:29:56;;;;;;;;;;;8.60;99.90;;;;;;5043450;28;19932;-70
2023/01/02 08:32:22;;;;;;;;;;;8.50;99.90;;;;;;5043490;28;19960;-69
2023/01/02 08:34:47;;;;;;;;;;;8.50;99.90;;;;;;5072076;28;19921;-73
2023/01/02 08:37:13;;;;;;;;;;;8.60;99.90;;;;;;5082007;28;20509;-69
2023/01/02 08:39:39;;;;;;;;;;;8.60;99.90;;;;;;5065839;28;19931;-70
2023/01/02 08:42:04;;;;;;;;;;;8.50;99.90;;;;;;5037700;28;19929;-70
2023/01/02 08:44:30;;;;;;;;;;;8.50;99.90;;;;;;5041250;28;20015;-69
2023/01/02 08:46:55;;;;;;;;;;;8.50;99.90;;;;;;5047195;28;19981;-70
2023/01/02 08:49:21;;;;;;;;;;;8.60;99.90;;;;;;5047712;28;19921;-69
2023/01/02 08:51:47;;;;;;;;;;;8.60;99.90;;;;;;5046344;28;19925;-70
2023/01/02 08:54:12;;;;;;;;;;;8.50;99.90;;;;;;5043461;28;19925;-70
2023/01/02 08:56:38;;;;;;;;;;;8.60;99.90;;;;;;5045267;28;19929;-71
2023/01/02 08:59:05;;;;;;;;;;;8.60;99.90;;;;;;5047535;28;19936;-69
2023/01/02 09:01:32;;;;;;;;;;;8.60;99.90;;;;;;5030511;28;19928;-68
2023/01/02 09:03:57;;;;;;;;;;;8.60;99.90;;;;;;5046390;28;19928;-68
2023/01/02 09:06:24;;;;;;;;;;;8.60;99.90;;;;;;5080002;28;19920;-69
2023/01/02 09:08:51;;;;;;;;;;;8.70;99.90;;;;;;5043218;28;19924;-68
2023/01/02 09:11:22;;;;;;;;;;;8.60;99.90;;;;;;5046576;28;20408;-68
2023/01/02 09:13:47;;;;;;;;;;;8.60;99.90;;;;;;5042335;28;19929;-69
2023/01/02 09:16:13;;;;;;;;;;;8.60;99.90;;;;;;5047841;28;19917;-69
2023/01/02 09:18:38;;;;;;;;;;;8.50;99.90;;;;;;5038302;28;20448;-68
2023/01/02 09:21:05;;;;;;;;;;;8.60;99.90;;;;;;5041125;28;19943;-68
2023/01/02 09:23:31;;;;;;;;;;;8.60;99.90;;;;;;5046098;28;19929;-68
2023/01/02 09:26:00;;;;;;;;;;;8.50;99.90;;;;;;5041101;28;19928;-69
2023/01/02 09:28:26;;;;;;;;;;;8.60;99.90;;;;;;5049195;28;20018;-69
2023/01/02 09:30:52;;;;;;;;;;;8.60;99.90;;;;;;5065955;28;19951;-69
2023/01/02 09:33:18;;;;;;;;;;;8.60;99.90;;;;;;5049020;28;20034;-69
2023/01/02 09:35:43;;;;;;;;;;;8.50;99.90;;;;;;5047101;28;19935;-67
2023/01/02 09:38:09;;;;;;;;;;;8.70;99.90;;;;;;5046402;28;19921;-68
2023/01/02 09:40:35;;;;;;;;;;;8.70;99.90;;;;;;5042584;28;19979;-68
2023/01/02 09:43:01;;;;;;;;;;;8.70;99.90;;;;;;5036548;28;19966;-72
2023/01/02 09:45:28;;;;;;;;;;;8.60;99.90;;;;;;5057596;28;19925;-71
2023/01/02 09:47:54;;;;;;;;;;;8.70;99.90;;;;;;5035351;28;20036;-68
2023/01/02 09:50:29;;;;;;;;;;;8.80;99.90;;;;;;5046022;28;19974;-69
2023/01/02 09:52:59;;;;;;;;;;;8.70;99.90;;;;;;5073844;28;20007;-70
2023/01/02 09:55:36;;;;;;;;;;;8.70;99.90;;;;;;5042648;28;20012;-70
2023/01/02 09:58:10;;;;;;;;;;;8.70;99.90;;;;;;5045151;28;19925;-68
2023/01/02 10:00:37;;;;;;;;;;;8.70;99.90;;;;;;5026752;28;19976;-71
2023/01/02 10:03:22;;;;;;;;;;;8.70;99.90;;;;;;5040556;28;19920;-70
2023/01/02 10:05:47;;;;;;;;;;;8.70;99.90;;;;;;5044140;28;19928;-70
2023/01/02 10:08:22;;;;;;;;;;;8.70;99.90;;;;;;5046642;28;19986;-71
2023/01/02 10:10:51;;;;;;;;;;;8.70;99.90;;;;;;5045365;28;19958;-70
2023/01/02 10:13:40;;;;;;;;;;;8.60;99.90;;;;;;5046651;28;19925;-75
2023/01/02 10:16:06;;;;;;;;;;;8.70;99.90;;;;;;5060244;28;19920;-73
2023/01/02 10:18:37;;;;;;;;;;;8.70;99.90;;;;;;5045982;28;20007;-72
2023/01/02 10:21:13;;;;;;;;;;;8.70;99.90;;;;;;5039682;28;19927;-72
2023/01/02 10:23:41;;;;;;;;;;;8.70;99.90;;;;;;5035665;28;19921;-72
2023/01/02 10:26:11;;;;;;;;;;;8.70;99.90;;;;;;5035274;28;20000;-72
2023/01/02 10:28:56;;;;;;;;;;;8.80;99.90;;;;;;5049076;28;19975;-72
2023/01/02 10:31:25;;;;;;;;;;;8.70;99.90;;;;;;5044411;28;20516;-73
2023/01/02 10:34:00;;;;;;;;;;;8.80;99.90;;;;;;5042556;28;19924;-72
2023/01/02 10:36:27;;;;;;;;;;;8.80;99.90;;;;;;5044230;28;19928;-72
2023/01/02 10:38:56;;;;;;;;;;;8.80;99.90;;;;;;5046684;28;19967;-71
2023/01/02 10:41:23;;;;;;;;;;;8.80;99.90;;;;;;5044252;28;19951;-72
2023/01/02 10:43:51;;;;;;;;;;;8.80;99.90;;;;;;5052732;28;19925;-72
2023/01/02 10:46:17;;;;;;;;;;;8.70;99.90;;;;;;5051098;28;19928;-72
2023/01/02 10:48:43;;;;;;;;;;;8.70;99.90;;;;;;5050913;28;19970;-72
2023/01/02 10:51:12;;;;;;;;;;;8.80;99.90;;;;;;5054397;28;19925;-71
2023/01/02 10:53:37;;;;;;;;;;;8.70;99.90;;;;;;5038144;28;19932;-70
2023/01/02 10:56:21;;;;;;;;;;;8.80;99.90;;;;;;5045186;28;19921;-70
2023/01/02 10:58:47;;;;;;;;;;;8.80;99.90;;;;;;5044501;28;19928;-69
2023/01/02 11:01:17;;;;;;;;;;;8.90;99.90;;;;;;5045975;28;20468;-69
2023/01/02 11:03:47;;;;;;;;;;;8.80;99.90;;;;;;5047289;28;20333;-69
2023/01/02 11:06:21;;;;;;;;;;;8.90;99.90;;;;;;5042576;28;20415;-68
2023/01/02 11:09:13;;;;;;;;;;;8.90;99.90;;;;;;5051042;28;19964;-68
2023/01/02 11:11:46;;;;;;;;;;;8.90;99.90;;;;;;5042846;28;19925;-71
2023/01/02 11:14:13;;;;;;;;;;;9.00;99.90;;;;;;5063032;28;19921;-69
2023/01/02 11:16:39;;;;;;;;;;;9.00;99.90;;;;;;5048111;28;19924;-69
2023/01/02 11:19:06;;;;;;;;;;;8.90;99.90;;;;;;5050227;28;20004;-69
2023/01/02 11:21:33;;;;;;;;;;;9.00;99.90;;;;;;5041372;28;19967;-68
2023/01/02 11:23:59;;;;;;;;;;;9.00;99.90;;;;;;5048080;28;19943;-69
2023/01/02 11:26:26;;;;;;;;;;;9.00;99.90;;;;;;5047994;28;19979;-69
2023/01/02 11:28:53;;;;;;;;;;;9.10;99.90;;;;;;5047478;28;19925;-69
2023/01/02 11:31:20;;;;;;;;;;;9.10;99.90;;;;;;5050701;28;19948;-69
2023/01/02 11:33:45;;;;;;;;;;;9.10;99.90;;;;;;5044781;28;19920;-69
2023/01/02 11:36:11;;;;;;;;;;;9.10;99.90;;;;;;5040001;28;19928;-72
2023/01/02 11:38:47;;;;;;;;;;;9.10;99.90;;;;;;5045720;28;19935;-68
2023/01/02 11:43:47;;;;;;;;;;;9.20;99.90;;;;;;5053762;28;19917;-68
2023/01/02 11:44:32;;;;;;;;;;;9.30;99.90;;;;;;5048540;28;20004;-68
2023/01/02 11:46:59;;;;;;;;;;;9.30;99.90;;;;;;5040621;28;20389;-68
2023/01/02 11:49:37;;;;;;;;;;;9.30;99.90;;;;;;5041071;28;19925;-68
2023/01/02 11:52:03;;;;;;;;;;;9.30;99.90;;;;;;5074885;28;20008;-68
2023/01/02 11:54:37;;;;;;;;;;;9.40;99.90;;;;;;5044260;28;19921;-68
2023/01/02 11:57:04;;;;;;;;;;;9.40;99.90;;;;;;5047348;28;20387;-68
2023/01/02 11:59:39;;;;;;;;;;;9.40;99.90;;;;;;5047566;28;19924;-72
2023/01/02 12:02:10;;;;;;;;;;;9.40;99.90;;;;;;5048830;28;19917;-68
2023/01/02 12:04:36;;;;;;;;;;;9.30;99.90;;;;;;5046038;28;19927;-70
2023/01/02 12:07:14;;;;;;;;;;;9.30;99.90;;;;;;5042019;28;19920;-69
2023/01/02 12:09:57;;;;;;;;;;;9.20;99.90;;;;;;5043562;28;20387;-68
2023/01/02 12:12:23;;;;;;;;;;;9.20;99.90;;;;;;5061858;28;20263;-68
2023/01/02 12:14:58;;;;;;;;;;;9.20;99.90;;;;;;5044347;28;19924;-69
2023/01/02 12:17:41;;;;;;;;;;;9.20;99.90;;;;;;5032653;28;19921;-69
2023/01/02 12:20:22;;;;;;;;;;;9.20;99.90;;;;;;5039282;28;19928;-69
2023/01/02 12:23:00;;;;;;;;;;;9.20;99.90;;;;;;5068963;28;19966;-71
2023/01/02 12:25:40;;;;;;;;;;;9.20;99.90;;;;;;5044409;28;19924;-70
2023/01/02 12:28:15;;;;;;;;;;;9.20;99.90;;;;;;5043855;28;19920;-70
2023/01/02 12:30:49;;;;;;;;;;;9.20;99.90;;;;;;5048216;28;20304;-70
2023/01/02 12:33:34;;;;;;;;;;;9.20;99.90;;;;;;5031912;28;19929;-70
2023/01/02 12:36:26;;;;;;;;;;;9.20;99.90;;;;;;5076096;28;19964;-69
2023/01/02 12:39:04;;;;;;;;;;;9.20;99.90;;;;;;5014319;28;20028;-69
2023/01/02 12:41:41;;;;;;;;;;;9.20;99.90;;;;;;5047814;28;19983;-69
2023/01/02 12:44:13;;;;;;;;;;;9.20;99.90;;;;;;5043889;28;19925;-70
2023/01/02 12:46:43;;;;;;;;;;;9.20;99.90;;;;;;5041872;28;19920;-69
2023/01/02 12:49:08;;;;;;;;;;;9.30;99.90;;;;;;5043725;28;19924;-70
2023/01/02 12:51:40;;;;;;;;;;;9.30;99.90;;;;;;5051357;28;20362;-69
2023/01/02 12:54:22;;;;;;;;;;;9.20;99.90;;;;;;5049932;28;19974;-69
2023/01/02 12:57:13;;;;;;;;;;;9.20;99.90;;;;;;5055861;28;20293;-69
2023/01/02 12:59:56;;;;;;;;;;;9.20;99.90;;;;;;5049951;28;20060;-70
2023/01/02 13:02:40;;;;;;;;;;;9.20;99.90;;;;;;5074268;28;19928;-70
2023/01/02 13:05:26;;;;;;;;;;;9.30;99.90;;;;;;5049093;28;20302;-70
2023/01/02 13:07:53;;;;;;;;;;;9.30;99.90;;;;;;5048115;28;20386;-70
2023/01/02 13:10:20;;;;;;;;;;;9.30;99.90;;;;;;5046949;28;19924;-69
2023/01/02 13:12:46;;;;;;;;;;;9.30;99.90;;;;;;5058465;28;19948;-70
2023/01/02 13:15:12;;;;;;;;;;;9.30;99.90;;;;;;5047649;28;20365;-69
2023/01/02 13:17:50;;;;;;;;;;;9.30;99.90;;;;;;5056617;28;19921;-69
2023/01/02 13:20:15;;;;;;;;;;;9.30;99.90;;;;;;5045426;28;19921;-70
2023/01/02 13:22:46;;;;;;;;;;;9.30;99.90;;;;;;5051962;28;19950;-73
2023/01/02 13:25:13;;;;;;;;;;;9.30;99.90;;;;;;5033602;28;20385;-69
2023/01/02 13:27:40;;;;;;;;;;;9.30;99.90;;;;;;5040306;28;20409;-71
2023/01/02 13:30:05;;;;;;;;;;;9.30;99.90;;;;;;5036043;28;19965;-71
2023/01/02 13:32:31;;;;;;;;;;;9.40;99.90;;;;;;5043856;28;19967;-71
2023/01/02 13:34:59;;;;;;;;;;;9.30;99.90;;;;;;5051132;28;19944;-71
2023/01/02 13:37:25;;;;;;;;;;;9.30;99.90;;;;;;5043504;28;19921;-72
2023/01/02 13:39:56;;;;;;;;;;;9.30;99.90;;;;;;5032698;28;19964;-71
2023/01/02 13:45:19;;;;;;;;;;;9.30;99.90;;;;;;5053628;28;19966;-70
2023/01/02 13:47:47;;;;;;;;;;;9.30;99.90;;;;;;5037748;28;20693;-70
2023/01/02 13:50:19;;;;;;;;;;;9.30;99.90;;;;;;5052782;28;19972;-70
2023/01/02 13:53:03;;;;;;;;;;;9.30;99.90;;;;;;5054085;28;19924;-70
2023/01/02 13:55:44;;;;;;;;;;;9.30;99.90;;;;;;5083213;28;19923;-71
2023/01/02 13:58:19;;;;;;;;;;;9.30;99.90;;;;;;5053041;28;20282;-70
2023/01/02 14:00:55;;;;;;;;;;;9.30;99.90;;;;;;5054070;28;20379;-70
2023/01/02 14:03:20;;;;;;;;;;;9.30;99.90;;;;;;5052845;28;20378;-71
2023/01/02 14:05:55;;;;;;;;;;;9.30;99.90;;;;;;5082310;28;19927;-71
2023/01/02 14:08:30;;;;;;;;;;;9.30;99.90;;;;;;5049262;28;20330;-71
2023/01/02 14:10:58;;;;;;;;;;;9.30;99.90;;;;;;5052429;28;20297;-72
2023/01/02 14:13:29;;;;;;;;;;;9.30;99.90;;;;;;5050676;28;19990;-72
2023/01/02 14:16:14;;;;;;;;;;;9.30;99.90;;;;;;5052723;28;19920;-72
2023/01/02 14:18:39;;;;;;;;;;;9.20;99.90;;;;;;5050876;28;19932;-72
2023/01/02 14:21:05;;;;;;;;;;;9.20;99.90;;;;;;5050249;28;20301;-71
2023/01/02 14:23:36;;;;;;;;;;;9.20;99.90;;;;;;5050612;28;20011;-71
2023/01/02 14:26:01;;;;;;;;;;;9.10;99.90;;;;;;5051725;28;20447;-71
2023/01/02 14:28:33;;;;;;;;;;;9.20;99.90;;;;;;5050041;28;19924;-72
2023/01/02 14:31:14;;;;;;;;;;;9.10;99.90;;;;;;5050932;28;19916;-71
2023/01/02 14:33:40;;;;;;;;;;;9.10;99.90;;;;;;5049507;28;19925;-71
2023/01/02 14:36:07;;;;;;;;;;;9.10;99.90;;;;;;5058394;28;19928;-71
2023/01/02 14:38:40;;;;;;;;;;;9.10;99.90;;;;;;5050921;28;20082;-71